Time;durP1;ratioP1;P1;durP2;ratioP2;P2;SDS_P1;SDS_P2;PMS_P1;PMS_P2;Temp;Humidity;BMP_temperature;BMP_pressure;BME280_temperature;BME280_humidity;BME280_pressure;Samples;Min_cycle;Max_cycle;Signal;HPM_P1;HPM_P2
2021/03/26 00:00:58;;;;;;;;;;;;;;;12.85;52.49;101359.69;4984389;28;7506;-79
2021/03/26 00:03:28;;;;;;;;;;;;;;;12.79;52.47;101370.81;4971562;28;6792;-80
2021/03/26 00:05:59;;;;;;;;;;;;;;;12.76;52.74;101369.88;4971350;28;8517;-79
2021/03/26 00:08:25;;;;;;;;;;;;;;;12.70;52.37;101367.13;5000434;28;7324;-78
2021/03/26 00:10:50;;;;;;;;;;;;;;;12.67;52.81;101375.75;4991113;28;6942;-78
2021/03/26 00:13:16;;;;;;;;;;;;;;;12.63;52.69;101367.81;4991533;28;7194;-78
2021/03/26 00:15:41;;;;;;;;;;;;;;;12.59;52.78;101371.19;4992467;28;8345;-78
2021/03/26 00:18:07;;;;;;;;;;;;;;;12.54;53.02;101378.88;4990813;28;8424;-78
2021/03/26 00:20:33;;;;;;;;;;;;;;;12.51;53.44;101371.00;4986641;28;8500;-78
2021/03/26 00:22:58;;;;;;;;;;;;;;;12.47;53.10;101376.97;4990572;28;7174;-78
2021/03/26 00:25:24;;;;;;;;;;;;;;;12.43;53.04;101378.63;4990900;28;6876;-78
2021/03/26 00:27:50;;;;;;;;;;;;;;;12.40;53.46;101373.31;4975078;28;6796;-78
2021/03/26 00:30:16;;;;;;;;;;;;;;;12.37;53.34;101385.38;4986459;28;6863;-78
2021/03/26 00:32:41;;;;;;;;;;;;;;;12.33;53.16;101376.63;4973760;28;7331;-78
2021/03/26 00:35:09;;;;;;;;;;;;;;;12.31;53.70;101374.81;4990643;28;6784;-78
2021/03/26 00:37:34;;;;;;;;;;;;;;;12.24;53.63;101373.78;4975719;28;6803;-79
2021/03/26 00:40:00;;;;;;;;;;;;;;;12.21;53.39;101367.59;4990436;28;7034;-79
2021/03/26 00:42:25;;;;;;;;;;;;;;;12.18;53.84;101369.28;4990419;28;6944;-78
2021/03/26 00:44:51;;;;;;;;;;;;;;;12.15;53.28;101370.91;4988043;28;6775;-79
2021/03/26 00:47:16;;;;;;;;;;;;;;;12.12;53.81;101363.03;4998146;28;6867;-78
2021/03/26 00:49:42;;;;;;;;;;;;;;;12.07;53.91;101359.44;4991750;28;7459;-79
2021/03/26 00:52:08;;;;;;;;;;;;;;;12.06;53.57;101368.09;4987504;28;6808;-79
2021/03/26 00:54:33;;;;;;;;;;;;;;;12.03;53.62;101357.59;5018261;28;7867;-79
2021/03/26 00:56:59;;;;;;;;;;;;;;;11.99;53.94;101355.72;4987587;28;6779;-79
2021/03/26 00:59:24;;;;;;;;;;;;;;;11.96;53.99;101358.25;4957339;28;8292;-79
2021/03/26 01:01:50;;;;;;;;;;;;;;;11.92;54.03;101356.41;4978284;28;8423;-79
2021/03/26 01:04:16;;;;;;;;;;;;;;;11.88;53.75;101347.63;4982664;28;8402;-79
2021/03/26 01:06:41;;;;;;;;;;;;;;;11.85;54.17;101350.16;4982915;28;6787;-79
2021/03/26 01:09:07;;;;;;;;;;;;;;;11.82;53.79;101340.56;4982141;28;7220;-79
2021/03/26 01:11:34;;;;;;;;;;;;;;;11.80;54.30;101339.59;4981006;28;7266;-79
2021/03/26 01:14:00;;;;;;;;;;;;;;;11.77;54.30;101341.22;4990858;28;8370;-79
2021/03/26 01:16:26;;;;;;;;;;;;;;;11.72;54.22;101333.28;4976842;28;7204;-79
2021/03/26 01:18:51;;;;;;;;;;;;;;;11.71;54.38;101339.31;4975457;28;8206;-79
2021/03/26 01:21:26;;;;;;;;;;;;;;;11.68;54.24;101331.44;4976183;28;7095;-79
2021/03/26 01:23:51;;;;;;;;;;;;;;;11.65;54.43;101333.97;4989073;28;11117;-79
2021/03/26 01:26:17;;;;;;;;;;;;;;;11.61;54.24;101328.59;5023739;28;6791;-79
2021/03/26 01:28:43;;;;;;;;;;;;;;;11.59;54.75;101325.97;4977623;28;7064;-78
2021/03/26 01:31:08;;;;;;;;;;;;;;;11.55;54.04;101322.41;4990118;28;6829;-79
2021/03/26 01:33:34;;;;;;;;;;;;;;;11.53;53.96;101323.19;4995306;28;7345;-79
2021/03/26 01:35:59;;;;;;;;;;;;;;;11.51;54.14;101323.16;4994074;28;7849;-79
2021/03/26 01:38:25;;;;;;;;;;;;;;;11.44;54.78;101320.34;4976732;28;7135;-79
2021/03/26 01:40:59;;;;;;;;;;;;;;;11.43;54.40;101319.47;4977495;28;7384;-79
2021/03/26 01:43:29;;;;;;;;;;;;;;;11.39;54.41;101309.78;5008122;28;7294;-79
2021/03/26 01:45:55;;;;;;;;;;;;;;;11.35;54.60;101301.88;4992287;28;7442;-79
2021/03/26 01:48:25;;;;;;;;;;;;;;;11.32;54.56;101301.78;4977310;28;6807;-79
2021/03/26 01:50:50;;;;;;;;;;;;;;;11.29;54.35;101299.97;4976320;28;7402;-79
2021/03/26 01:53:16;;;;;;;;;;;;;;;11.25;55.27;101308.53;5017919;28;7257;-79
2021/03/26 01:55:43;;;;;;;;;;;;;;;11.21;54.75;101304.97;4972555;28;6792;-79
2021/03/26 01:58:09;;;;;;;;;;;;;;;11.18;54.38;101297.03;4976883;28;7262;-79
2021/03/26 02:00:39;;;;;;;;;;;;;;;11.15;54.88;101303.88;4988462;28;7115;-79
2021/03/26 02:03:18;;;;;;;;;;;;;;;11.11;54.94;101299.44;4960991;28;8554;-79
2021/03/26 02:05:43;;;;;;;;;;;;;;;11.06;54.87;101299.31;4990285;28;11139;-79
2021/03/26 02:08:12;;;;;;;;;;;;;;;11.04;54.78;101298.38;5017165;28;7437;-79
2021/03/26 02:10:38;;;;;;;;;;;;;;;11.01;54.70;101298.25;4974357;28;6788;-79
2021/03/26 02:13:05;;;;;;;;;;;;;;;10.97;54.63;101299.00;4993311;28;7226;-79
2021/03/26 02:15:36;;;;;;;;;;;;;;;10.96;54.66;101299.84;4988945;28;6897;-79
2021/03/26 02:18:01;;;;;;;;;;;;;;;10.91;55.18;101298.84;4976273;28;7192;-79
2021/03/26 02:20:32;;;;;;;;;;;;;;;10.86;54.86;101300.41;4992711;28;6784;-79
2021/03/26 02:23:06;;;;;;;;;;;;;;;10.84;55.41;101296.88;4992915;28;7159;-79
2021/03/26 02:25:31;;;;;;;;;;;;;;;10.79;55.15;101288.94;4975120;28;6827;-79
2021/03/26 02:27:57;;;;;;;;;;;;;;;10.77;55.02;101288.00;5002916;28;7464;-79
2021/03/26 02:30:28;;;;;;;;;;;;;;;10.75;55.46;101291.38;4990040;28;7940;-79
2021/03/26 02:32:54;;;;;;;;;;;;;;;10.72;55.60;101286.09;4973903;28;8394;-79
2021/03/26 02:35:27;;;;;;;;;;;;;;;10.68;55.23;101289.44;4991344;28;6790;-79
2021/03/26 02:38:21;;;;;;;;;;;;;;;10.63;55.42;101292.78;4990156;28;7215;-79
2021/03/26 02:41:08;;;;;;;;;;;;;;;10.59;55.38;101284.81;4992173;28;11130;-79
2021/03/26 02:44:08;;;;;;;;;;;;;;;10.56;55.39;101292.53;4997481;28;12589;-79
2021/03/26 02:46:43;;;;;;;;;;;;;;;10.53;55.90;101290.72;4991149;28;13338;-79
2021/03/26 02:49:33;;;;;;;;;;;;;;;10.49;55.42;101294.06;4995297;28;6975;-79
2021/03/26 02:52:00;;;;;;;;;;;;;;;10.46;55.37;101288.78;5004744;28;11664;-79
2021/03/26 02:54:28;;;;;;;;;;;;;;;10.44;55.92;101285.25;4988744;28;6856;-79
2021/03/26 02:56:57;;;;;;;;;;;;;;;10.43;55.83;101280.00;4974013;28;7249;-79
2021/03/26 02:59:27;;;;;;;;;;;;;;;10.40;55.35;101278.16;4977404;28;7245;-79
2021/03/26 03:01:53;;;;;;;;;;;;;;;10.38;55.54;101289.34;4999985;28;6811;-79
2021/03/26 03:04:27;;;;;;;;;;;;;;;10.34;55.41;101285.75;5001888;28;7329;-79
2021/03/26 03:06:59;;;;;;;;;;;;;;;10.32;55.52;101282.25;4998630;28;11032;-79
2021/03/26 03:09:25;;;;;;;;;;;;;;;10.27;55.96;101276.91;4961450;28;7429;-79
2021/03/26 03:11:53;;;;;;;;;;;;;;;10.27;56.02;101278.63;4971791;28;6839;-79
2021/03/26 03:14:32;;;;;;;;;;;;;;;10.25;56.33;101269.91;5002947;28;7248;-79
2021/03/26 03:17:01;;;;;;;;;;;;;;;10.22;56.18;101267.22;4973810;28;6961;-79
2021/03/26 03:19:36;;;;;;;;;;;;;;;10.19;56.07;101277.44;4992287;28;6808;-79
2021/03/26 03:22:06;;;;;;;;;;;;;;;10.16;56.42;101275.63;4992018;28;8218;-79
2021/03/26 03:24:36;;;;;;;;;;;;;;;10.14;56.30;101279.00;5008082;28;7345;-78
2021/03/26 03:27:27;;;;;;;;;;;;;;;10.13;56.10;101285.03;4974629;28;8052;-79
2021/03/26 03:30:01;;;;;;;;;;;;;;;10.09;56.35;101281.44;4991725;28;11056;-79
2021/03/26 03:32:44;;;;;;;;;;;;;;;10.08;56.11;101282.28;5005383;28;6819;-79
2021/03/26 03:35:31;;;;;;;;;;;;;;;10.04;56.18;101277.81;5018555;28;7215;-78
2021/03/26 03:38:32;;;;;;;;;;;;;;;10.01;56.23;101280.28;4992547;28;11218;-79
2021/03/26 03:41:12;;;;;;;;;;;;;;;9.97;56.84;101268.94;4944682;28;11224;-79
2021/03/26 03:44:01;;;;;;;;;;;;;;;9.94;56.24;101266.25;4993148;28;7181;-79
2021/03/26 03:46:37;;;;;;;;;;;;;;;9.92;56.09;101269.63;5007022;28;11300;-79
2021/03/26 03:49:37;;;;;;;;;;;;;;;9.89;56.45;101267.81;4958449;28;8354;-79
2021/03/26 03:52:24;;;;;;;;;;;;;;;9.86;56.21;101272.88;4989974;28;10998;-79
2021/03/26 03:55:06;;;;;;;;;;;;;;;9.83;56.90;101272.78;4971285;28;12157;-79
2021/03/26 03:57:35;;;;;;;;;;;;;;;9.80;56.62;101272.66;5003437;28;10974;-79
2021/03/26 04:00:06;;;;;;;;;;;;;;;9.76;56.52;101266.47;4972203;28;6788;-79
2021/03/26 04:02:35;;;;;;;;;;;;;;;9.73;56.73;101270.69;5006197;28;7221;-79
2021/03/26 04:05:13;;;;;;;;;;;;;;;9.69;56.68;101259.34;5001778;28;7149;-79
2021/03/26 04:07:59;;;;;;;;;;;;;;;9.68;56.91;101267.06;4995386;28;7426;-79
2021/03/26 04:13:49;;;;;;;;;;;;;;;9.60;56.86;101259.00;4985796;28;11121;-78
2021/03/26 04:16:18;;;;;;;;;;;;;;;9.57;56.55;101269.25;5014381;28;6815;-79
2021/03/26 04:18:48;;;;;;;;;;;;;;;9.55;56.75;101270.91;4974113;28;9042;-79
2021/03/26 04:21:37;;;;;;;;;;;;;;;9.53;57.01;101264.81;5003623;28;6984;-79
2021/03/26 04:24:03;;;;;;;;;;;;;;;9.50;56.77;101269.00;4980486;28;11124;-79
2021/03/26 04:26:35;;;;;;;;;;;;;;;9.47;57.07;101263.72;4992447;28;7110;-79
2021/03/26 04:29:17;;;;;;;;;;;;;;;9.41;56.73;101261.75;4990408;28;11109;-80
2021/03/26 04:31:48;;;;;;;;;;;;;;;9.37;56.79;101260.78;4988130;28;7127;-79
2021/03/26 04:34:13;;;;;;;;;;;;;;;9.35;57.15;101261.53;4974398;28;7010;-78
2021/03/26 04:37:22;;;;;;;;;;;;;;;9.33;56.80;101255.44;4971210;28;8535;-78
2021/03/26 04:40:17;;;;;;;;;;;;;;;9.29;57.06;101261.34;4975178;28;13005;-78
2021/03/26 04:43:06;;;;;;;;;;;;;;;9.25;57.12;101260.34;4986675;28;12956;-78
2021/03/26 04:45:55;;;;;;;;;;;;;;;9.21;56.93;101263.66;5002581;28;11277;-76
2021/03/26 04:48:35;;;;;;;;;;;;;;;9.19;57.11;101260.09;4988672;28;7695;-76
2021/03/26 04:51:22;;;;;;;;;;;;;;;9.16;56.97;101257.41;5005813;28;11123;-79
2021/03/26 04:54:00;;;;;;;;;;;;;;;9.12;57.04;101258.13;4968572;28;7367;-78
2021/03/26 04:56:28;;;;;;;;;;;;;;;9.11;56.76;101248.59;4984184;28;11134;-79
2021/03/26 04:58:57;;;;;;;;;;;;;;;9.08;57.01;101254.53;4999612;28;7485;-78
2021/03/26 05:01:23;;;;;;;;;;;;;;;9.04;57.13;101252.66;4985028;28;8537;-79
2021/03/26 05:03:52;;;;;;;;;;;;;;;9.00;57.06;101255.06;4970905;28;7101;-73
2021/03/26 05:06:23;;;;;;;;;;;;;;;9.05;56.78;101256.13;5012659;28;7305;-76
2021/03/26 05:08:54;;;;;;;;;;;;;;;9.07;56.75;101252.78;4952302;28;8530;-76
2021/03/26 05:11:20;;;;;;;;;;;;;;;9.08;56.92;101251.94;4946788;28;6977;-78
2021/03/26 05:14:07;;;;;;;;;;;;;;;9.08;56.49;101251.06;4963316;28;8536;-76
2021/03/26 05:16:53;;;;;;;;;;;;;;;9.05;56.93;101251.84;5016438;28;11496;-79
2021/03/26 05:19:25;;;;;;;;;;;;;;;9.04;56.90;101252.66;4987100;28;6820;-77
2021/03/26 05:22:13;;;;;;;;;;;;;;;9.06;56.62;101253.59;4986898;28;7293;-77
2021/03/26 05:24:46;;;;;;;;;;;;;;;9.03;56.62;101253.50;4990169;28;11331;-77
2021/03/26 05:27:11;;;;;;;;;;;;;;;9.02;56.60;101254.31;4970733;28;7229;-76
2021/03/26 05:29:37;;;;;;;;;;;;;;;9.02;56.42;101256.03;4969396;28;7865;-76
2021/03/26 05:32:19;;;;;;;;;;;;;;;9.01;56.44;101251.63;4973375;28;6784;-76
2021/03/26 05:35:01;;;;;;;;;;;;;;;9.03;56.48;101257.78;4970419;28;7408;-78
2021/03/26 05:37:35;;;;;;;;;;;;;;;9.03;56.24;101250.03;5012965;28;11647;-78
2021/03/26 05:40:15;;;;;;;;;;;;;;;9.02;56.41;101254.31;4979492;28;14067;-76
2021/03/26 05:42:45;;;;;;;;;;;;;;;9.05;56.32;101250.97;4971796;28;6903;-77
2021/03/26 05:45:26;;;;;;;;;;;;;;;9.06;56.54;101260.50;5005482;28;8520;-77
2021/03/26 05:48:06;;;;;;;;;;;;;;;9.01;55.87;101259.41;5002089;28;8577;-77
2021/03/26 05:50:54;;;;;;;;;;;;;;;9.04;56.27;101254.38;5000142;28;12707;-76
2021/03/26 05:53:25;;;;;;;;;;;;;;;9.06;56.13;101250.13;4988238;28;7468;-79
2021/03/26 05:56:18;;;;;;;;;;;;;;;9.07;55.97;101255.38;4983212;28;7004;-78
2021/03/26 05:59:02;;;;;;;;;;;;;;;9.09;55.62;101261.47;4985066;28;11001;-79
2021/03/26 06:01:59;;;;;;;;;;;;;;;9.09;55.78;101264.06;4991370;28;12906;-79
2021/03/26 06:04:27;;;;;;;;;;;;;;;9.12;55.79;101268.47;4989519;28;11819;-79
2021/03/26 06:07:14;;;;;;;;;;;;;;;9.13;55.50;101265.06;4985803;28;7067;-79
2021/03/26 06:10:09;;;;;;;;;;;;;;;9.13;55.34;101260.75;4988474;28;11210;-78
2021/03/26 06:12:49;;;;;;;;;;;;;;;9.13;55.31;101267.66;4987317;28;11577;-78
2021/03/26 06:15:52;;;;;;;;;;;;;;;9.17;54.92;101264.34;4992344;28;8407;-79
2021/03/26 06:18:30;;;;;;;;;;;;;;;9.19;55.35;101267.00;4992369;28;12087;-78
2021/03/26 06:21:27;;;;;;;;;;;;;;;9.24;55.19;101270.66;4992029;28;7103;-78
2021/03/26 06:24:20;;;;;;;;;;;;;;;9.24;55.38;101268.94;4984498;28;14336;-79
2021/03/26 06:27:10;;;;;;;;;;;;;;;9.26;55.21;101274.19;5018662;28;11477;-79
2021/03/26 06:29:57;;;;;;;;;;;;;;;9.28;55.01;101270.81;4991240;28;11304;-78
2021/03/26 06:32:41;;;;;;;;;;;;;;;9.34;54.75;101270.16;4992196;28;6997;-80
2021/03/26 06:35:25;;;;;;;;;;;;;;;9.35;54.54;101266.72;5008964;28;12852;-79
2021/03/26 06:38:18;;;;;;;;;;;;;;;9.39;54.80;101269.47;4993811;28;7174;-79
2021/03/26 06:41:05;;;;;;;;;;;;;;;9.42;54.74;101264.44;4992888;28;11028;-78
2021/03/26 06:43:52;;;;;;;;;;;;;;;9.43;54.31;101265.31;4992933;28;13195;-78
2021/03/26 06:46:46;;;;;;;;;;;;;;;9.48;54.61;101262.88;4991402;28;12638;-78
2021/03/26 06:49:25;;;;;;;;;;;;;;;9.50;54.34;101261.22;5019614;28;12479;-79
2021/03/26 06:52:29;;;;;;;;;;;;;;;9.52;54.36;101262.16;5005424;28;7771;-80
2021/03/26 06:55:16;;;;;;;;;;;;;;;9.58;54.26;101252.00;4917347;29;12630;-80
2021/03/26 06:57:54;;;;;;;;;;;;;;;9.62;54.36;101256.47;4919049;29;11517;-80
2021/03/26 07:00:48;;;;;;;;;;;;;;;9.64;54.22;101260.91;4946759;28;7138;-79
2021/03/26 07:03:13;;;;;;;;;;;;;;;9.71;54.00;101247.31;4985089;28;11197;-79
2021/03/26 07:05:57;;;;;;;;;;;;;;;9.80;53.83;101254.50;4994540;28;7222;-79
2021/03/26 07:08:32;;;;;;;;;;;;;;;9.88;53.65;101259.97;4992995;28;6828;-78
2021/03/26 07:11:11;;;;;;;;;;;;;;;9.94;53.55;101257.56;4993698;28;7242;-79
2021/03/26 07:14:02;;;;;;;;;;;;;;;9.89;53.67;101253.94;4991972;28;11595;-79
2021/03/26 07:16:33;;;;;;;;;;;;;;;9.93;53.73;101248.91;5000383;28;7364;-79
2021/03/26 07:19:46;;;;;;;;;;;;;;;9.93;54.18;101248.91;5002943;28;8869;-80
2021/03/26 07:22:35;;;;;;;;;;;;;;;9.99;53.34;101251.69;4982069;28;11290;-79
2021/03/26 07:25:42;;;;;;;;;;;;;;;10.06;53.84;101245.91;4961069;28;12988;-79
2021/03/26 07:28:45;;;;;;;;;;;;;;;10.15;53.48;101247.03;4922334;28;12853;-80
2021/03/26 07:31:17;;;;;;;;;;;;;;;10.14;53.18;101240.94;4992000;28;11011;-79
2021/03/26 07:34:20;;;;;;;;;;;;;;;10.21;53.50;101236.88;4991988;28;6899;-79
2021/03/26 07:37:04;;;;;;;;;;;;;;;10.26;53.32;101244.00;4987485;28;10970;-78
2021/03/26 07:39:37;;;;;;;;;;;;;;;10.29;53.17;101241.50;4989939;28;7051;-77
2021/03/26 07:42:15;;;;;;;;;;;;;;;10.38;53.25;101235.69;4987063;28;12736;-78
2021/03/26 07:44:50;;;;;;;;;;;;;;;10.41;53.16;101232.31;4990101;28;11512;-79
2021/03/26 07:48:12;;;;;;;;;;;;;;;10.43;53.27;101231.56;4972709;28;7341;-77
2021/03/26 07:50:41;;;;;;;;;;;;;;;10.51;52.84;101234.38;4936486;28;10988;-78
2021/03/26 07:53:22;;;;;;;;;;;;;;;10.56;53.24;101235.41;4921716;28;6804;-77
2021/03/26 07:56:25;;;;;;;;;;;;;;;10.61;52.66;101223.41;4969948;28;6848;-77
2021/03/26 07:59:18;;;;;;;;;;;;;;;10.69;52.78;101228.88;4989831;28;11086;-77
2021/03/26 08:02:04;;;;;;;;;;;;;;;10.75;52.30;101226.44;4985337;28;11529;-79
2021/03/26 08:04:55;;;;;;;;;;;;;;;10.81;52.62;101224.03;5015740;28;8863;-77
2021/03/26 08:07:58;;;;;;;;;;;;;;;10.87;52.16;101229.41;4989602;28;11119;-76
2021/03/26 08:10:37;;;;;;;;;;;;;;;10.92;52.35;101220.91;4990165;28;11532;-77
2021/03/26 08:13:12;;;;;;;;;;;;;;;10.95;52.63;101220.13;5008036;28;11192;-78
2021/03/26 08:15:50;;;;;;;;;;;;;;;11.04;51.82;101223.00;5016361;28;11080;-78
2021/03/26 08:18:40;;;;;;;;;;;;;;;11.10;52.29;101215.38;5005928;28;7331;-79
2021/03/26 08:21:14;;;;;;;;;;;;;;;11.12;51.90;101213.69;4989008;28;11060;-78
2021/03/26 08:24:12;;;;;;;;;;;;;;;11.23;51.65;101222.69;4991606;28;11130;-79
2021/03/26 08:27:01;;;;;;;;;;;;;;;11.33;51.92;101210.81;4990320;28;11058;-78
2021/03/26 08:29:44;;;;;;;;;;;;;;;11.44;51.26;101214.59;4947441;28;6812;-78
2021/03/26 08:32:38;;;;;;;;;;;;;;;11.48;51.48;101205.16;5010936;28;12757;-78
2021/03/26 08:35:29;;;;;;;;;;;;;;;11.59;51.19;101216.69;4990120;28;11254;-78
2021/03/26 08:37:58;;;;;;;;;;;;;;;11.68;51.52;101214.38;4972914;28;11025;-78
2021/03/26 08:40:43;;;;;;;;;;;;;;;11.79;51.27;101214.66;4988681;28;8389;-78
2021/03/26 08:43:09;;;;;;;;;;;;;;;11.86;51.04;101208.78;4973723;28;11075;-78
2021/03/26 08:45:37;;;;;;;;;;;;;;;11.95;50.19;101218.53;4959267;28;6945;-78
2021/03/26 08:48:32;;;;;;;;;;;;;;;11.99;50.99;101209.97;4986938;28;11148;-79
2021/03/26 08:51:07;;;;;;;;;;;;;;;12.09;50.58;101211.97;4983540;28;13009;-78
2021/03/26 08:54:04;;;;;;;;;;;;;;;12.19;50.07;101217.41;5019018;28;11082;-79
2021/03/26 08:56:53;;;;;;;;;;;;;;;12.26;50.28;101208.03;4988111;28;11202;-78
2021/03/26 08:59:31;;;;;;;;;;;;;;;12.37;49.57;101197.84;4991844;28;11085;-78
2021/03/26 09:02:21;;;;;;;;;;;;;;;12.44;49.91;101203.25;5009132;28;6819;-78
2021/03/26 09:05:17;;;;;;;;;;;;;;;12.55;49.87;101202.59;4992216;28;11234;-78
2021/03/26 09:08:03;;;;;;;;;;;;;;;12.65;49.82;101199.38;4979088;28;10976;-79
2021/03/26 09:10:50;;;;;;;;;;;;;;;12.73;49.15;101210.84;5003191;28;7117;-79
2021/03/26 09:13:25;;;;;;;;;;;;;;;12.82;49.06;101200.63;4991510;28;11280;-79
2021/03/26 09:15:57;;;;;;;;;;;;;;;12.90;48.96;101199.03;4992473;28;6969;-78
2021/03/26 09:18:50;;;;;;;;;;;;;;;13.01;48.96;101196.63;4986721;28;7324;-78
2021/03/26 09:21:42;;;;;;;;;;;;;;;13.11;48.38;101196.00;4992867;28;10972;-78
2021/03/26 09:24:46;;;;;;;;;;;;;;;13.26;48.75;101191.13;5011629;28;11282;-79
2021/03/26 09:27:30;;;;;;;;;;;;;;;13.39;48.33;101192.22;4923938;29;12639;-77
2021/03/26 09:30:05;;;;;;;;;;;;;;;13.47;47.48;101193.25;4899152;29;6842;-77
2021/03/26 09:32:45;;;;;;;;;;;;;;;13.56;48.01;101198.63;4965813;28;8480;-78
2021/03/26 09:35:16;;;;;;;;;;;;;;;13.66;47.19;101179.69;5006182;28;11297;-78
2021/03/26 09:37:43;;;;;;;;;;;;;;;13.72;47.53;101185.84;4988523;28;6834;-78
2021/03/26 09:40:17;;;;;;;;;;;;;;;13.83;47.45;101173.88;4991824;28;6824;-78
2021/03/26 09:43:10;;;;;;;;;;;;;;;13.94;47.07;101185.34;4975654;28;7100;-79
2021/03/26 09:45:39;;;;;;;;;;;;;;;14.08;46.71;101176.03;4982422;28;11085;-78
2021/03/26 09:48:38;;;;;;;;;;;;;;;14.17;46.95;101173.53;5005697;28;10962;-79
2021/03/26 09:55:17;;;;;;;;;;;;;;;;;;;;;
2021/03/26 09:58:37;;;;;;;;;;;;;;;15.15;44.67;101161.81;4911802;28;19005;-77
2021/03/26 10:01:09;;;;;;;;;;;;;;;15.47;43.92;101160.41;4934815;28;12525;-78
2021/03/26 10:03:50;;;;;;;;;;;;;;;15.67;44.09;101151.91;4973273;28;12620;-78
2021/03/26 10:06:40;;;;;;;;;;;;;;;15.82;43.56;101152.91;4999186;28;11461;-79
2021/03/26 10:09:31;;;;;;;;;;;;;;;15.90;43.15;101146.84;4988626;28;11362;-78
2021/03/26 10:12:05;;;;;;;;;;;;;;;15.99;43.53;101136.44;4989939;28;11190;-78
2021/03/26 10:14:53;;;;;;;;;;;;;;;16.02;43.42;101129.50;4992102;28;6874;-78
2021/03/26 10:17:31;;;;;;;;;;;;;;;15.99;43.13;101129.44;4990913;28;12537;-77
2021/03/26 10:19:59;;;;;;;;;;;;;;;16.03;43.36;101126.00;4975329;28;8648;-78
2021/03/26 10:22:39;;;;;;;;;;;;;;;16.21;43.21;101124.34;4977726;28;7447;-78
2021/03/26 10:25:14;;;;;;;;;;;;;;;16.38;42.55;101130.56;4988431;28;11398;-79
2021/03/26 10:27:41;;;;;;;;;;;;;;;16.49;42.42;101126.28;4986099;28;11551;-78
2021/03/26 10:30:17;;;;;;;;;;;;;;;16.59;42.25;101114.94;4975530;28;6954;-78
2021/03/26 10:32:42;;;;;;;;;;;;;;;16.79;41.79;101109.81;5004452;28;14097;-78
2021/03/26 10:35:21;;;;;;;;;;;;;;;17.18;41.17;101108.16;4989885;28;7091;-78
2021/03/26 10:38:03;;;;;;;;;;;;;;;17.27;41.23;101102.94;4989196;28;7071;-79
2021/03/26 10:40:41;;;;;;;;;;;;;;;17.34;40.78;101095.06;4972796;28;7426;-78
2021/03/26 10:43:30;;;;;;;;;;;;;;;17.30;40.76;101093.31;4971442;28;11170;-78
2021/03/26 10:46:12;;;;;;;;;;;;;;;17.30;41.06;101093.31;4985645;28;11186;-78
2021/03/26 10:48:54;;;;;;;;;;;;;;;17.61;40.45;101083.69;4975316;28;14151;-78
2021/03/26 10:51:24;;;;;;;;;;;;;;;17.77;39.91;101081.09;4989192;28;11489;-79
2021/03/26 10:53:52;;;;;;;;;;;;;;;17.58;40.35;101072.31;5008819;28;7533;-79
2021/03/26 10:56:50;;;;;;;;;;;;;;;17.60;40.62;101074.06;4969322;28;7116;-80
2021/03/26 10:59:49;;;;;;;;;;;;;;;17.80;39.91;101071.47;4961115;28;14562;-80
2021/03/26 11:02:33;;;;;;;;;;;;;;;17.90;40.05;101070.59;4986394;28;12845;-80
2021/03/26 11:05:18;;;;;;;;;;;;;;;18.02;39.87;101058.28;4980731;28;7286;-79
2021/03/26 11:08:07;;;;;;;;;;;;;;;18.30;39.01;101049.44;4990492;28;11000;-78
2021/03/26 11:10:44;;;;;;;;;;;;;;;18.46;39.11;101038.00;4977616;28;7305;-80
2021/03/26 11:13:54;;;;;;;;;;;;;;;18.71;38.41;101032.63;4981777;28;11504;-80
2021/03/26 11:16:28;;;;;;;;;;;;;;;19.03;37.63;101028.06;4985409;28;11648;-80
2021/03/26 11:18:57;;;;;;;;;;;;;;;19.31;37.44;101033.09;4967636;28;7100;-79
2021/03/26 11:21:22;;;;;;;;;;;;;;;19.17;37.66;101032.34;4989651;28;8608;-79
2021/03/26 11:23:56;;;;;;;;;;;;;;;19.09;37.62;101029.78;4969569;28;8469;-79
2021/03/26 11:26:31;;;;;;;;;;;;;;;19.25;37.46;101012.09;4965573;28;7015;-80
2021/03/26 11:29:02;;;;;;;;;;;;;;;19.36;37.07;101016.38;4989027;28;6854;-79
2021/03/26 11:31:38;;;;;;;;;;;;;;;19.41;37.33;101011.94;4994619;28;7275;-80
2021/03/26 11:34:41;;;;;;;;;;;;;;;19.56;36.81;101024.13;4958900;28;7271;-79
2021/03/26 11:37:12;;;;;;;;;;;;;;;19.67;36.71;101016.13;4987649;28;11469;-79
2021/03/26 11:39:59;;;;;;;;;;;;;;;19.72;36.79;101014.31;4981569;28;11078;-79
2021/03/26 11:42:57;;;;;;;;;;;;;;;19.77;36.79;101007.25;4974830;28;11069;-80
2021/03/26 11:45:37;;;;;;;;;;;;;;;20.34;35.61;101000.41;4978175;28;12926;-79
2021/03/26 11:48:46;;;;;;;;;;;;;;;20.53;35.39;100995.81;4958337;28;7063;-79
2021/03/26 11:51:39;;;;;;;;;;;;;;;20.86;35.14;100991.81;4982322;28;7056;-78
2021/03/26 11:54:43;;;;;;;;;;;;;;;21.26;34.16;100983.28;4981995;28;11092;-77
2021/03/26 11:57:36;;;;;;;;;;;;;;;21.76;33.51;100978.84;4984924;28;12355;-76
2021/03/26 12:00:04;;;;;;;;;;;;;;;22.25;32.51;100978.78;5007596;28;11452;-77
2021/03/26 12:02:51;;;;;;;;;;;;;;;22.71;32.07;100986.56;4990258;28;6835;-79
2021/03/26 12:05:33;;;;;;;;;;;;;;;22.69;32.24;100980.44;4971703;28;13033;-80
2021/03/26 12:08:14;;;;;;;;;;;;;;;22.64;31.95;100976.16;4987387;28;6879;-77
2021/03/26 12:10:55;;;;;;;;;;;;;;;22.98;31.53;100969.19;4970412;28;11166;-76
2021/03/26 12:13:30;;;;;;;;;;;;;;;23.13;31.84;100972.38;4970497;28;8098;-76
2021/03/26 12:15:58;;;;;;;;;;;;;;;23.09;32.05;100966.28;4968227;28;7323;-77
2021/03/26 12:18:51;;;;;;;;;;;;;;;23.19;31.30;100965.13;4969690;28;7431;-76
2021/03/26 12:21:42;;;;;;;;;;;;;;;23.28;31.47;100964.91;4969884;28;11275;-76
2021/03/26 12:24:23;;;;;;;;;;;;;;;23.55;31.23;100959.78;4999311;28;11459;-78
2021/03/26 12:27:09;;;;;;;;;;;;;;;23.49;30.87;100955.53;4970047;28;13089;-78
2021/03/26 12:29:53;;;;;;;;;;;;;;;23.60;30.37;100953.47;4994626;28;7234;-77
2021/03/26 12:32:43;;;;;;;;;;;;;;;24.12;29.94;100945.81;4982699;28;11168;-78
2021/03/26 12:35:28;;;;;;;;;;;;;;;24.36;29.92;100947.78;4984858;28;11243;-77
2021/03/26 12:38:16;;;;;;;;;;;;;;;24.37;29.84;100943.34;5003383;28;11204;-78
2021/03/26 12:40:42;;;;;;;;;;;;;;;24.48;29.93;100941.22;4990418;28;12522;-78
2021/03/26 12:43:22;;;;;;;;;;;;;;;24.72;29.61;100931.63;4990088;28;7194;-77
2021/03/26 12:45:54;;;;;;;;;;;;;;;25.04;29.26;100933.25;4989249;28;11514;-78
2021/03/26 12:48:21;;;;;;;;;;;;;;;25.20;29.15;100930.91;4971774;28;6829;-78
2021/03/26 12:50:58;;;;;;;;;;;;;;;25.22;28.92;100935.25;4985480;28;7175;-78
2021/03/26 12:53:32;;;;;;;;;;;;;;;25.82;28.30;100923.38;4988374;28;7265;-77
2021/03/26 12:56:22;;;;;;;;;;;;;;;26.22;27.85;100920.09;4973130;28;6880;-78
2021/03/26 12:59:00;;;;;;;;;;;;;;;26.13;27.67;100919.59;5001689;28;13066;-77
2021/03/26 13:01:37;;;;;;;;;;;;;;;26.48;27.32;100907.59;4983854;28;7360;-78
2021/03/26 13:04:12;;;;;;;;;;;;;;;26.85;26.86;100910.50;4988834;28;7095;-78
2021/03/26 13:06:39;;;;;;;;;;;;;;;27.32;26.34;100912.97;4982535;28;11133;-77
2021/03/26 13:09:30;;;;;;;;;;;;;;;27.84;25.34;100913.34;4976595;28;6978;-79
2021/03/26 13:12:09;;;;;;;;;;;;;;;28.38;24.92;100904.56;5010999;28;10845;-80
2021/03/26 13:14:47;;;;;;;;;;;;;;;28.65;25.04;100885.47;4993619;28;7224;-78
2021/03/26 13:17:31;;;;;;;;;;;;;;;28.42;25.02;100890.09;4990596;28;12832;-77
2021/03/26 13:20:08;;;;;;;;;;;;;;;28.45;25.14;100889.97;4973352;28;7337;-78
2021/03/26 13:22:55;;;;;;;;;;;;;;;28.96;24.50;100887.47;5000375;28;8132;-79
2021/03/26 13:25:43;;;;;;;;;;;;;;;30.93;22.32;100888.25;4979330;28;12796;-79
2021/03/26 13:28:20;;;;;;;;;;;;;;;32.42;20.18;100879.88;5010116;28;11580;-79
2021/03/26 13:31:06;;;;;;;;;;;;;;;34.56;18.33;100877.38;4995454;28;12844;-80
2021/03/26 13:33:48;;;;;;;;;;;;;;;31.26;21.84;100869.31;4976780;28;7223;-79
2021/03/26 13:36:24;;;;;;;;;;;;;;;35.39;17.66;100880.03;4994130;28;11009;-79
2021/03/26 13:39:00;;;;;;;;;;;;;;;37.62;15.55;100874.97;4986368;28;6922;-78
2021/03/26 13:41:36;;;;;;;;;;;;;;;38.36;14.49;100872.81;4988469;28;7306;-79
2021/03/26 13:44:27;;;;;;;;;;;;;;;38.55;14.75;100866.56;4977450;28;6997;-78
2021/03/26 13:47:01;;;;;;;;;;;;;;;38.11;15.22;100866.03;4985563;28;12735;-78
2021/03/26 13:49:26;;;;;;;;;;;;;;;40.23;13.66;100872.16;4989082;28;8956;-80
2021/03/26 13:51:55;;;;;;;;;;;;;;;40.46;12.93;100853.56;4991689;28;7345;-79